Time;durP1;ratioP1;P1;durP2;ratioP2;P2;SDS_P1;SDS_P2;PMS_P1;PMS_P2;Temp;Humidity;BMP_temperature;BMP_pressure;BME280_temperature;BME280_humidity;BME280_pressure;Samples;Min_cycle;Max_cycle;Signal;HPM_P1;HPM_P2
2022/11/06 00:00:00;;;;;;;10.23;6.95;;;;;;;7.73;100.00;100874.59;687247;28;1227;-67
2022/11/06 00:00:21;;;;;;;10.80;6.57;;;;;;;7.70;100.00;100868.47;687463;28;1009;-67
2022/11/06 00:00:41;;;;;;;10.93;6.70;;;;;;;7.60;100.00;100867.50;686902;28;4359;-67
2022/11/06 00:01:07;;;;;;;10.00;6.20;;;;;;;7.62;100.00;100866.66;687775;28;1200;-67
2022/11/06 00:01:27;;;;;;;10.18;6.65;;;;;;;7.60;100.00;100873.59;687964;28;1407;-67
2022/11/06 00:01:48;;;;;;;10.63;6.87;;;;;;;7.58;100.00;100864.00;687960;28;1199;-67
2022/11/06 00:02:08;;;;;;;10.68;6.85;;;;;;;7.62;100.00;100876.19;686874;28;1345;-67
2022/11/06 00:02:29;;;;;;;9.70;6.53;;;;;;;7.58;100.00;100871.81;687636;28;1615;-67
2022/11/06 00:02:49;;;;;;;10.57;6.43;;;;;;;7.53;100.00;100870.88;687753;28;1411;-67
2022/11/06 00:03:10;;;;;;;10.10;6.37;;;;;;;7.50;100.00;100870.00;687375;28;1322;-67
2022/11/06 00:03:30;;;;;;;9.40;6.40;;;;;;;7.49;100.00;100875.16;687687;28;1518;-66
2022/11/06 00:03:51;;;;;;;9.10;6.30;;;;;;;7.49;100.00;100873.47;687010;28;4397;-67
2022/11/06 00:04:12;;;;;;;10.32;6.18;;;;;;;7.56;100.00;100873.50;686878;28;1324;-66
2022/11/06 00:04:32;;;;;;;10.20;6.17;;;;;;;7.58;100.00;100862.28;688140;28;919;-67
2022/11/06 00:04:52;;;;;;;9.60;6.30;;;;;;;7.54;100.00;100870.91;687659;28;1218;-67
2022/11/06 00:06:47;;;;;;;9.63;6.00;;;;;;;7.51;100.00;100870.88;687292;28;1119;-67
2022/11/06 00:07:08;;;;;;;11.45;6.55;;;;;;;7.49;100.00;100872.56;686436;28;5204;-67
2022/11/06 00:07:28;;;;;;;9.88;6.22;;;;;;;7.50;100.00;100870.00;686866;28;3968;-68
2022/11/06 00:07:48;;;;;;;10.93;6.13;;;;;;;7.48;100.00;100865.66;684587;28;2110;-66
2022/11/06 00:08:09;;;;;;;9.70;6.13;;;;;;;7.49;100.00;100875.16;687251;28;1252;-66
2022/11/06 00:08:35;;;;;;;9.33;5.90;;;;;;;7.51;100.00;100870.88;687189;28;1129;-67
2022/11/06 00:08:59;;;;;;;10.95;6.20;;;;;;;7.45;100.00;100876.03;687690;28;1328;-67
2022/11/06 00:09:20;;;;;;;9.32;5.97;;;;;;;7.45;100.00;100874.28;687245;28;1245;-67
2022/11/06 00:09:40;;;;;;;9.57;5.75;;;;;;;7.44;100.00;100869.94;688572;28;4616;-67
2022/11/06 00:10:00;;;;;;;9.57;5.88;;;;;;;7.46;100.00;100873.44;687556;28;1552;-67
2022/11/06 00:10:21;;;;;;;9.57;5.70;;;;;;;7.44;100.00;100869.94;686816;28;1228;-67
2022/11/06 00:10:42;;;;;;;9.05;5.88;;;;;;;7.43;100.00;100873.38;687617;28;1187;-67
2022/11/06 00:11:09;;;;;;;9.70;6.10;;;;;;;7.43;100.00;100870.78;687890;28;1147;-67
2022/11/06 00:11:30;;;;;;;9.57;6.03;;;;;;;7.45;100.00;100870.81;687434;28;1355;-68
2022/11/06 00:11:51;;;;;;;11.27;5.97;;;;;;;7.45;100.00;100871.69;687604;28;1246;-68
2022/11/06 00:12:12;;;;;;;9.13;5.97;;;;;;;7.42;100.00;100866.44;687343;28;1085;-67
2022/11/06 00:12:32;;;;;;;8.25;5.70;;;;;;;7.40;100.00;100872.50;687255;28;1160;-68
2022/11/06 00:12:53;;;;;;;8.50;5.60;;;;;;;7.36;100.00;100866.38;687003;28;4934;-67
2022/11/06 00:13:13;;;;;;;9.35;6.05;;;;;;;7.34;100.00;100862.88;687038;28;1300;-67
2022/11/06 00:13:33;;;;;;;9.23;6.10;;;;;;;7.35;100.00;100862.00;687646;28;1405;-67
2022/11/06 00:13:54;;;;;;;9.15;6.00;;;;;;;7.33;100.00;100871.53;687787;28;1211;-67
2022/11/06 00:14:15;;;;;;;9.87;5.83;;;;;;;7.34;100.00;100870.69;687388;28;1009;-67
2022/11/06 00:14:35;;;;;;;10.57;5.55;;;;;;;7.32;100.00;100870.69;686984;28;1101;-67
2022/11/06 00:14:56;;;;;;;9.17;5.70;;;;;;;7.32;100.00;100870.69;687924;28;1214;-67
2022/11/06 00:15:16;;;;;;;9.67;5.87;;;;;;;7.32;100.00;100870.69;687833;28;1224;-67
2022/11/06 00:15:37;;;;;;;9.65;5.82;;;;;;;7.43;100.00;100864.72;687507;28;4896;-66
2022/11/06 00:16:01;;;;;;;10.03;5.47;;;;;;;7.40;100.00;100865.53;687494;28;1163;-67
2022/11/06 00:16:21;;;;;;;9.77;5.55;;;;;;;7.40;100.00;100865.53;687287;28;1102;-67
2022/11/06 00:16:44;;;;;;;8.57;5.40;;;;;;;7.46;100.00;100869.94;687238;28;1192;-67
2022/11/06 00:17:04;;;;;;;9.35;5.70;;;;;;;7.64;100.00;100869.28;687478;28;1198;-67
2022/11/06 00:17:25;;;;;;;11.90;6.20;;;;;;;7.61;100.00;100864.03;687560;28;1185;-67
2022/11/06 00:17:48;;;;;;;9.90;5.78;;;;;;;7.69;100.00;100866.72;687555;28;1503;-66
2022/11/06 00:18:08;;;;;;;9.40;5.68;;;;;;;7.62;100.00;100869.25;687276;28;1279;-67
2022/11/06 00:18:29;;;;;;;9.20;5.80;;;;;;;7.62;100.00;100863.19;687608;28;1906;-67
2022/11/06 00:18:49;;;;;;;9.75;5.47;;;;;;;7.60;100.00;100862.28;686430;28;4295;-67
2022/11/06 00:19:10;;;;;;;8.00;5.20;;;;;;;7.58;100.00;100864.88;684772;28;1128;-67
2022/11/06 00:19:30;;;;;;;9.07;5.40;;;;;;;7.53;100.00;100863.09;685325;28;1412;-67
2022/11/06 00:19:50;;;;;;;9.43;5.60;;;;;;;7.56;100.00;100866.59;685025;28;1353;-67
2022/11/06 00:20:11;;;;;;;9.85;5.70;;;;;;;7.62;100.00;100868.41;685048;28;1280;-67
2022/11/06 00:20:31;;;;;;;9.20;5.50;;;;;;;7.57;100.00;100859.66;685276;28;1120;-66
2022/11/06 00:20:51;;;;;;;8.77;5.50;;;;;;;7.72;100.00;100867.63;684907;28;1272;-67
2022/11/06 00:21:17;;;;;;;9.38;5.15;;;;;;;7.66;100.00;100864.97;684941;28;1042;-67
2022/11/06 00:21:38;;;;;;;10.07;5.18;;;;;;;7.56;100.00;100860.50;684775;28;4420;-68
2022/11/06 00:21:58;;;;;;;8.85;5.05;;;;;;;7.53;100.00;100869.16;688290;28;1203;-68
2022/11/06 00:22:19;;;;;;;9.07;5.20;;;;;;;7.54;100.00;100867.44;687543;28;1221;-68
2022/11/06 00:22:39;;;;;;;8.97;5.20;;;;;;;7.59;100.00;100863.16;688277;28;1342;-67
2022/11/06 00:22:59;;;;;;;7.82;4.90;;;;;;;7.56;100.00;100869.22;687827;28;3588;-67
2022/11/06 00:23:19;;;;;;;8.50;5.17;;;;;;;7.52;100.00;100872.63;687781;28;1001;-67
2022/11/06 00:23:41;;;;;;;9.83;5.47;;;;;;;7.52;100.00;100869.13;687916;28;1144;-67
2022/11/06 00:24:03;;;;;;;8.50;4.80;;;;;;;7.46;100.00;100872.53;687754;28;1160;-67
2022/11/06 00:24:24;;;;;;;9.13;5.00;;;;;;;7.44;100.00;100864.72;687552;28;1716;-67
2022/11/06 00:24:44;;;;;;;8.17;5.10;;;;;;;7.42;100.00;100871.66;687221;28;4457;-67
2022/11/06 00:25:06;;;;;;;9.27;5.10;;;;;;;7.39;100.00;100871.59;687521;28;1213;-68
2022/11/06 00:25:26;;;;;;;9.23;5.05;;;;;;;7.44;100.00;100874.28;687182;28;1453;-67
2022/11/06 00:25:46;;;;;;;8.53;5.13;;;;;;;7.43;100.00;100867.31;687806;28;1572;-67
2022/11/06 00:26:10;;;;;;;8.98;5.20;;;;;;;7.42;100.00;100869.06;687256;28;1183;-67
2022/11/06 00:26:32;;;;;;;9.52;5.35;;;;;;;7.39;100.00;100866.41;686345;28;1210;-67
2022/11/06 00:26:53;;;;;;;8.18;5.07;;;;;;;7.38;100.00;100864.66;687307;28;1215;-67
2022/11/06 00:27:13;;;;;;;9.87;5.13;;;;;;;7.37;100.00;100868.13;685386;28;1056;-67
2022/11/06 00:27:36;;;;;;;10.18;5.47;;;;;;;7.35;100.00;100868.94;687736;28;1504;-67
2022/11/06 00:27:56;;;;;;;9.00;5.35;;;;;;;7.35;100.00;100861.16;686833;28;4294;-67
2022/11/06 00:28:16;;;;;;;9.27;5.27;;;;;;;7.35;100.00;100864.63;686993;28;1020;-67
2022/11/06 00:28:37;;;;;;;7.87;5.10;;;;;;;7.38;100.00;100869.88;687286;28;1673;-68
2022/11/06 00:28:58;;;;;;;8.10;4.80;;;;;;;7.38;100.00;100859.47;687290;28;1140;-67
2022/11/06 00:29:18;;;;;;;8.63;5.05;;;;;;;7.39;100.00;100866.41;687396;28;1234;-66
2022/11/06 00:29:39;;;;;;;9.03;5.00;;;;;;;7.39;100.00;100865.53;687794;28;1360;-67
2022/11/06 00:30:00;;;;;;;10.02;5.13;;;;;;;7.37;100.00;100862.91;687942;28;1246;-69
2022/11/06 00:30:20;;;;;;;10.93;5.13;;;;;;;7.36;100.00;100857.69;687598;28;1025;-67
2022/11/06 00:30:40;;;;;;;9.10;5.00;;;;;;;7.36;100.00;100861.16;686744;28;4738;-68
2022/11/06 00:31:06;;;;;;;8.95;4.90;;;;;;;7.36;100.00;100865.50;687321;28;1427;-67
2022/11/06 00:31:32;;;;;;;10.18;4.97;;;;;;;7.32;100.00;100859.38;687220;28;1192;-67
2022/11/06 00:31:53;;;;;;;8.40;5.30;;;;;;;7.30;100.00;100855.91;687101;28;1017;-66
2022/11/06 00:32:13;;;;;;;7.77;4.80;;;;;;;7.31;100.00;100862.81;686877;28;1013;-68
2022/11/06 00:32:33;;;;;;;7.30;4.77;;;;;;;7.36;100.00;100855.97;687650;28;1259;-67
2022/11/06 00:32:54;;;;;;;8.02;4.75;;;;;;;7.45;100.00;100861.28;687961;28;1310;-67
2022/11/06 00:33:14;;;;;;;8.37;4.70;;;;;;;7.44;100.00;100858.66;687211;28;942;-68
2022/11/06 00:33:34;;;;;;;8.07;4.65;;;;;;;7.43;100.00;100859.50;687726;28;1222;-67
2022/11/06 00:33:58;;;;;;;7.57;4.93;;;;;;;7.44;100.00;100864.72;687398;28;4507;-67
2022/11/06 00:34:18;;;;;;;8.10;5.03;;;;;;;7.51;100.00;100860.47;687228;28;1182;-67
2022/11/06 00:34:38;;;;;;;7.70;5.07;;;;;;;7.57;100.00;100859.66;687795;28;1164;-66
2022/11/06 00:34:59;;;;;;;8.03;4.67;;;;;;;7.55;100.00;100861.38;687771;28;1172;-67
2022/11/06 00:35:19;;;;;;;8.77;4.93;;;;;;;7.48;100.00;100861.31;687099;28;1036;-68
2022/11/06 00:35:39;;;;;;;9.87;4.70;;;;;;;7.48;100.00;100857.84;687759;28;1144;-67
2022/11/06 00:36:08;;;;;;;8.52;4.60;;;;;;;7.43;100.00;100860.38;687052;28;1112;-67
2022/11/06 00:36:29;;;;;;;8.38;4.60;;;;;;;7.48;100.00;100861.31;687222;28;1516;-67
2022/11/06 00:36:49;;;;;;;9.13;4.78;;;;;;;7.47;100.00;100863.91;687095;28;4464;-67
2022/11/06 00:37:10;;;;;;;8.73;4.70;;;;;;;7.43;100.00;100870.78;686474;28;1328;-67
2022/11/06 00:37:30;;;;;;;7.70;4.70;;;;;;;7.42;100.00;100863.84;687256;28;1057;-67
2022/11/06 00:37:50;;;;;;;7.77;4.70;;;;;;;7.40;100.00;100868.16;687738;28;1156;-68
2022/11/06 00:38:11;;;;;;;8.25;4.70;;;;;;;7.38;100.00;100871.59;687483;28;1053;-67
2022/11/06 00:38:31;;;;;;;8.30;4.90;;;;;;;7.37;100.00;100868.13;687590;28;1946;-67
2022/11/06 00:38:54;;;;;;;9.02;4.75;;;;;;;7.43;100.00;100872.50;687863;28;1203;-68
2022/11/06 00:39:17;;;;;;;9.40;4.80;;;;;;;7.42;100.00;100866.44;687501;28;1055;-68
2022/11/06 00:39:37;;;;;;;8.10;4.50;;;;;;;7.45;100.00;100868.22;687240;28;4715;-67
2022/11/06 00:39:58;;;;;;;7.53;4.40;;;;;;;7.48;100.00;100871.72;687876;28;1243;-68
2022/11/06 00:40:18;;;;;;;7.68;4.50;;;;;;;7.52;100.00;100877.84;687645;28;1185;-67
2022/11/06 00:40:39;;;;;;;7.77;4.50;;;;;;;7.54;100.00;100870.91;687553;28;1160;-67
2022/11/06 00:41:04;;;;;;;7.85;4.40;;;;;;;7.57;100.00;100876.13;687925;28;1399;-68
2022/11/06 00:41:25;;;;;;;8.25;4.30;;;;;;;7.70;100.00;100864.16;689913;28;1372;-67
2022/11/06 00:41:45;;;;;;;7.43;4.40;;;;;;;7.63;100.00;100871.00;689943;28;4818;-67
2022/11/06 00:42:05;;;;;;;7.47;4.50;;;;;;;7.58;100.00;100864.88;689929;28;1443;-67
2022/11/06 00:42:26;;;;;;;8.60;4.60;;;;;;;7.64;100.00;100864.06;690255;28;1310;-67
2022/11/06 00:42:46;;;;;;;8.60;4.30;;;;;;;7.58;100.00;100864.00;689947;28;5271;-67
2022/11/06 00:43:06;;;;;;;7.07;4.07;;;;;;;7.60;100.00;100867.50;689815;28;1359;-66
2022/11/06 00:43:27;;;;;;;6.80;4.13;;;;;;;7.56;100.00;100868.31;687536;28;1668;-67
2022/11/06 00:43:49;;;;;;;7.77;4.60;;;;;;;7.53;100.00;100865.69;687542;28;1031;-67
2022/11/06 00:44:10;;;;;;;8.38;4.50;;;;;;;7.49;100.00;100868.25;687404;28;1063;-67
2022/11/06 00:44:30;;;;;;;8.27;4.65;;;;;;;7.50;100.00;100872.63;687173;28;1472;-67
2022/11/06 00:44:50;;;;;;;7.23;4.60;;;;;;;7.47;100.00;100871.69;687841;28;1450;-67
2022/11/06 00:45:11;;;;;;;6.00;4.53;;;;;;;7.48;100.00;100871.72;687183;28;1288;-67
2022/11/06 00:45:31;;;;;;;8.02;4.60;;;;;;;7.47;100.00;100869.09;687707;28;1255;-67
2022/11/06 00:45:51;;;;;;;8.27;4.50;;;;;;;7.45;100.00;100865.63;686821;28;4518;-68
2022/11/06 00:46:13;;;;;;;8.13;4.47;;;;;;;7.50;100.00;100874.31;686899;28;1017;-67
2022/11/06 00:46:33;;;;;;;8.40;4.60;;;;;;;7.47;100.00;100869.97;686903;28;1555;-68
2022/11/06 00:46:53;;;;;;;9.07;4.40;;;;;;;7.48;100.00;100874.31;687554;28;1214;-68
2022/11/06 00:47:14;;;;;;;9.13;4.60;;;;;;;7.45;100.00;100874.28;687434;28;992;-67
2022/11/06 00:47:34;;;;;;;9.90;4.70;;;;;;;7.42;100.00;100874.25;687513;28;1156;-67
2022/11/06 00:47:55;;;;;;;8.73;4.40;;;;;;;7.43;100.00;100872.50;687303;28;1049;-68
2022/11/06 00:48:15;;;;;;;9.07;4.30;;;;;;;7.40;100.00;100875.94;687262;28;940;-67
2022/11/06 00:48:36;;;;;;;9.80;4.50;;;;;;;7.49;100.00;100873.47;685210;28;1191;-67
2022/11/06 00:48:57;;;;;;;8.88;4.53;;;;;;;7.47;100.00;100876.91;686800;28;4863;-68
2022/11/06 00:49:17;;;;;;;7.80;4.60;;;;;;;7.43;100.00;100872.50;687379;28;1140;-68
2022/11/06 00:49:38;;;;;;;8.75;4.53;;;;;;;7.39;100.00;100871.59;687014;28;1423;-67
2022/11/06 00:49:59;;;;;;;9.17;4.67;;;;;;;7.37;100.00;100868.13;687434;28;1383;-68
2022/11/06 00:50:19;;;;;;;7.97;4.53;;;;;;;7.39;100.00;100874.19;687188;28;1405;-67
2022/11/06 00:50:39;;;;;;;8.25;4.75;;;;;;;7.45;100.00;100871.69;687620;28;1222;-67
2022/11/06 00:51:12;;;;;;;8.17;4.37;;;;;;;7.59;100.00;100864.03;687892;28;1369;-68
2022/11/06 00:51:35;;;;;;;7.82;4.45;;;;;;;7.56;100.00;100870.91;687797;28;1219;-68
2022/11/06 00:51:56;;;;;;;7.80;4.20;;;;;;;7.62;100.00;100868.41;687130;28;4360;-67
2022/11/06 00:52:16;;;;;;;7.25;4.22;;;;;;;7.61;100.00;100870.09;687385;28;1478;-68
2022/11/06 00:52:36;;;;;;;6.53;4.30;;;;;;;7.60;100.00;100876.19;687430;28;1520;-67
2022/11/06 00:52:57;;;;;;;7.43;4.20;;;;;;;7.72;100.00;100875.44;687907;28;1394;-67
2022/11/06 00:53:17;;;;;;;7.05;4.25;;;;;;;7.73;100.00;100869.38;687405;28;1132;-67
2022/11/06 00:53:38;;;;;;;7.67;4.40;;;;;;;7.66;100.00;100875.38;687491;28;1263;-67
2022/11/06 00:54:01;;;;;;;7.45;4.20;;;;;;;7.61;100.00;100866.66;687648;28;1265;-68
2022/11/06 00:54:21;;;;;;;9.15;4.38;;;;;;;7.55;100.00;100871.78;687581;28;1306;-68
2022/11/06 00:54:41;;;;;;;8.90;4.40;;;;;;;7.50;100.00;100875.22;687224;28;4389;-67
2022/11/06 00:55:02;;;;;;;7.63;4.17;;;;;;;7.47;100.00;100872.56;687937;28;1396;-68
2022/11/06 00:55:22;;;;;;;6.90;4.20;;;;;;;7.48;100.00;100871.72;687417;28;943;-67
2022/11/06 00:55:43;;;;;;;7.63;4.30;;;;;;;7.58;100.00;100877.03;687629;28;1128;-67
2022/11/06 00:56:07;;;;;;;7.43;4.30;;;;;;;7.61;100.00;100874.44;687459;28;1140;-67
2022/11/06 00:56:29;;;;;;;8.07;4.32;;;;;;;7.51;100.00;100870.88;686108;28;1096;-68
2022/11/06 00:56:49;;;;;;;7.97;4.38;;;;;;;7.46;100.00;100868.22;687566;28;1160;-67
2022/11/06 00:57:10;;;;;;;9.03;4.50;;;;;;;7.44;100.00;100869.94;686992;28;1316;-67
2022/11/06 00:57:30;;;;;;;8.38;4.30;;;;;;;7.42;100.00;100876.84;683843;28;1471;-68
2022/11/06 00:57:51;;;;;;;6.63;3.90;;;;;;;7.37;100.00;100878.53;686266;28;4285;-67
2022/11/06 00:58:11;;;;;;;7.67;4.20;;;;;;;7.39;100.00;100876.78;687183;28;1163;-68
2022/11/06 00:58:32;;;;;;;8.63;4.50;;;;;;;7.48;100.00;100876.06;687800;28;1982;-67
2022/11/06 00:58:53;;;;;;;7.45;4.20;;;;;;;7.60;100.00;100877.91;689802;28;1116;-67
2022/11/06 00:59:13;;;;;;;7.97;4.05;;;;;;;7.50;100.00;100872.63;689795;28;1346;-68
2022/11/06 00:59:34;;;;;;;7.70;4.10;;;;;;;7.45;100.00;100879.50;687574;28;1184;-68
2022/11/06 00:59:54;;;;;;;7.83;4.30;;;;;;;7.45;100.00;100870.81;687630;28;1216;-68
2022/11/06 01:00:17;;;;;;;7.78;4.22;;;;;;;7.41;100.00;100875.09;686305;28;1381;-67
2022/11/06 01:00:37;;;;;;;6.90;3.92;;;;;;;7.38;100.00;100880.28;686305;28;4557;-67
2022/11/06 01:01:14;;;;;;;7.63;4.17;;;;;;;7.31;100.00;100873.22;684897;28;1474;-66
2022/11/06 01:01:37;;;;;;;7.15;4.30;;;;;;;7.37;100.00;100878.53;684049;28;1445;-66
2022/11/06 01:01:58;;;;;;;8.40;4.43;;;;;;;7.54;100.00;100865.69;684890;28;1354;-67
2022/11/06 01:02:19;;;;;;;8.38;4.32;;;;;;;7.55;100.00;100871.78;684656;28;1329;-68
2022/11/06 01:02:40;;;;;;;7.68;4.20;;;;;;;7.58;100.00;100877.03;685094;28;1346;-67
2022/11/06 01:03:00;;;;;;;9.02;4.18;;;;;;;7.54;100.00;100867.44;685029;28;1157;-67
2022/11/06 01:03:20;;;;;;;8.60;4.40;;;;;;;7.49;100.00;100880.38;684561;28;1425;-67
2022/11/06 01:03:46;;;;;;;7.82;4.20;;;;;;;7.53;100.00;100871.75;684983;28;4353;-67
2022/11/06 01:04:20;;;;;;;8.45;4.20;;;;;;;7.65;100.00;100871.88;686783;28;1033;-67
2022/11/06 01:04:40;;;;;;;7.32;4.55;;;;;;;7.67;100.00;100871.94;687342;28;1427;-67
2022/11/06 01:05:01;;;;;;;7.25;4.18;;;;;;;7.63;100.00;100870.16;687290;28;1014;-67
2022/11/06 01:05:21;;;;;;;8.13;4.10;;;;;;;7.71;100.00;100868.47;687463;28;1018;-67
2022/11/06 01:05:41;;;;;;;8.67;4.20;;;;;;;7.66;100.00;100871.03;687603;28;1576;-66
2022/11/06 01:06:07;;;;;;;11.40;4.30;;;;;;;7.63;100.00;100871.00;687532;28;1252;-67
2022/11/06 01:06:31;;;;;;;9.18;4.25;;;;;;;7.60;100.00;100867.50;685653;28;1257;-67
2022/11/06 01:06:55;;;;;;;8.32;4.30;;;;;;;7.60;100.00;100870.09;687174;28;4353;-67
2022/11/06 01:07:15;;;;;;;8.52;4.22;;;;;;;7.55;100.00;100871.78;687145;28;1224;-67
2022/11/06 01:07:36;;;;;;;7.67;4.40;;;;;;;7.50;100.00;100870.00;687448;28;1264;-67
2022/11/06 01:07:56;;;;;;;8.53;4.50;;;;;;;7.45;100.00;100874.28;685700;28;1326;-67
2022/11/06 01:08:16;;;;;;;8.82;4.18;;;;;;;7.40;100.00;100873.34;685062;28;1314;-68
2022/11/06 01:08:38;;;;;;;8.63;4.10;;;;;;;7.49;100.00;100873.47;684769;28;924;-67
2022/11/06 01:08:58;;;;;;;12.23;4.47;;;;;;;7.48;100.00;100874.31;685203;28;895;-67
2022/11/06 01:09:21;;;;;;;8.88;4.28;;;;;;;7.44;100.00;100869.94;683826;28;1072;-67
2022/11/06 01:09:42;;;;;;;9.18;4.40;;;;;;;7.43;100.00;100869.91;685084;28;4349;-67
2022/11/06 01:10:03;;;;;;;8.80;4.05;;;;;;;7.41;100.00;100874.25;687835;28;1076;-67
2022/11/06 01:10:23;;;;;;;8.57;4.07;;;;;;;7.41;100.00;100874.25;686753;28;1368;-67
2022/11/06 01:10:43;;;;;;;7.87;4.30;;;;;;;7.50;100.00;100866.53;687239;28;943;-67
2022/11/06 01:11:09;;;;;;;7.77;4.17;;;;;;;7.52;100.00;100869.13;687344;28;1160;-67
2022/11/06 01:11:35;;;;;;;8.00;4.30;;;;;;;7.64;100.00;100867.56;687321;28;1194;-66
2022/11/06 01:11:58;;;;;;;7.47;4.10;;;;;;;7.63;100.00;100870.16;686168;28;1196;-67
2022/11/06 01:12:18;;;;;;;7.30;4.10;;;;;;;7.66;100.00;100864.97;687042;28;1150;-66
2022/11/06 01:12:38;;;;;;;7.88;4.25;;;;;;;7.70;100.00;100864.16;686242;28;4463;-66
2022/11/06 01:12:59;;;;;;;7.90;4.53;;;;;;;7.74;100.00;100867.63;688995;28;1063;-67
2022/11/06 01:13:19;;;;;;;6.87;4.20;;;;;;;7.65;100.00;100865.81;690061;28;1033;-67
2022/11/06 01:13:41;;;;;;;7.03;4.22;;;;;;;7.62;100.00;100868.41;689701;28;1471;-67
2022/11/06 01:14:03;;;;;;;7.18;4.38;;;;;;;7.55;100.00;100870.06;689690;28;1223;-67
2022/11/06 01:14:24;;;;;;;8.75;4.47;;;;;;;7.52;100.00;100869.13;686145;28;2225;-67
2022/11/06 01:14:44;;;;;;;8.73;4.40;;;;;;;7.56;100.00;100870.91;687382;28;1209;-67
2022/11/06 01:15:05;;;;;;;7.07;3.90;;;;;;;7.60;100.00;100875.28;687510;28;1132;-66
2022/11/06 01:15:25;;;;;;;6.93;4.20;;;;;;;7.59;100.00;100865.78;687159;28;1123;-67
2022/11/06 01:15:46;;;;;;;7.70;4.60;;;;;;;7.52;100.00;100863.94;687223;28;4374;-67
2022/11/06 01:16:09;;;;;;;7.83;4.50;;;;;;;7.47;100.00;100869.09;687031;28;1296;-67
2022/11/06 01:16:31;;;;;;;8.02;4.63;;;;;;;7.41;100.00;100869.03;686276;28;1289;-67
2022/11/06 01:16:51;;;;;;;9.55;4.30;;;;;;;7.37;100.00;100862.91;687390;28;1286;-67
2022/11/06 01:17:12;;;;;;;10.23;4.35;;;;;;;7.33;100.00;100867.19;684171;28;1486;-67
2022/11/06 01:17:33;;;;;;;9.70;4.40;;;;;;;7.45;100.00;100861.28;684337;28;1227;-67
2022/11/06 01:17:54;;;;;;;8.38;4.00;;;;;;;7.52;100.00;100866.53;685854;28;1247;-67
2022/11/06 01:18:14;;;;;;;8.23;4.30;;;;;;;7.48;100.00;100860.44;687139;28;1083;-68
2022/11/06 01:18:36;;;;;;;7.00;4.10;;;;;;;7.42;100.00;100870.75;687343;28;1965;-67
2022/11/06 01:18:57;;;;;;;8.18;4.40;;;;;;;7.44;100.00;100861.25;686836;28;4393;-70
2022/11/06 01:19:19;;;;;;;8.35;4.40;;;;;;;7.40;100.00;100862.09;687071;28;3691;-67
2022/11/06 01:19:40;;;;;;;9.45;4.20;;;;;;;7.38;100.00;100858.56;689851;28;1320;-67
2022/11/06 01:20:03;;;;;;;9.70;4.10;;;;;;;7.41;100.00;100864.69;690207;28;1661;-67
2022/11/06 01:20:23;;;;;;;8.48;4.13;;;;;;;7.42;100.00;100857.75;689484;28;1799;-67
2022/11/06 01:20:43;;;;;;;8.67;4.40;;;;;;;7.39;100.00;100853.38;689519;28;1397;-68
2022/11/06 01:21:11;;;;;;;7.60;4.33;;;;;;;7.43;100.00;100852.56;689883;28;1626;-67
2022/11/06 01:21:36;;;;;;;7.54;4.22;;;;;;;7.43;100.00;100847.38;688878;28;1259;-67
2022/11/06 01:21:57;;;;;;;7.07;4.10;;;;;;;7.37;100.00;100855.13;687388;28;4741;-66
2022/11/06 01:22:17;;;;;;;6.87;4.27;;;;;;;7.49;100.00;100841.34;687145;28;1499;-66
2022/11/06 01:22:37;;;;;;;7.28;4.15;;;;;;;7.54;100.00;100839.69;687419;28;1342;-67
2022/11/06 01:22:58;;;;;;;7.67;3.80;;;;;;;7.45;100.00;100842.22;687515;28;1527;-67
2022/11/06 01:23:18;;;;;;;7.97;3.80;;;;;;;7.44;100.00;100841.31;686704;28;1298;-67
2022/11/06 01:23:39;;;;;;;7.03;3.97;;;;;;;7.45;100.00;100839.59;686805;28;1506;-67
2022/11/06 01:24:04;;;;;;;7.87;4.13;;;;;;;7.50;100.00;100837.91;687622;28;1251;-67
2022/11/06 01:24:27;;;;;;;7.93;4.45;;;;;;;7.46;100.00;100838.72;689489;28;1333;-68
2022/11/06 01:24:47;;;;;;;7.97;4.05;;;;;;;7.40;100.00;100841.28;689839;28;4683;-68
2022/11/06 01:25:08;;;;;;;7.53;4.20;;;;;;;7.37;100.00;100839.50;689544;28;1214;-67
2022/11/06 01:25:28;;;;;;;6.70;3.97;;;;;;;7.36;100.00;100835.16;688689;28;1120;-67
2022/11/06 01:25:56;;;;;;;7.00;3.93;;;;;;;7.35;100.00;100835.13;687471;28;1381;-67
2022/11/06 01:26:17;;;;;;;8.35;4.20;;;;;;;7.29;100.00;100833.34;686993;28;1563;-67
2022/11/06 01:26:38;;;;;;;7.10;3.97;;;;;;;7.28;100.00;100836.78;687254;28;1207;-67
2022/11/06 01:26:58;;;;;;;8.40;3.80;;;;;;;7.26;100.00;100838.53;687653;28;1385;-67
2022/11/06 01:27:18;;;;;;;8.47;4.10;;;;;;;7.29;100.00;100841.16;687231;28;1675;-67
2022/11/06 01:27:39;;;;;;;7.57;4.10;;;;;;;7.26;100.00;100838.53;687125;28;4318;-67
2022/11/06 01:27:59;;;;;;;8.52;4.30;;;;;;;7.23;100.00;100839.34;687561;28;1231;-67
2022/11/06 01:28:20;;;;;;;7.67;4.27;;;;;;;7.22;100.00;100842.81;687165;28;1621;-67
2022/11/06 01:28:41;;;;;;;8.10;4.03;;;;;;;7.24;100.00;100841.09;687841;28;1232;-68
2022/11/06 01:29:02;;;;;;;7.30;3.90;;;;;;;7.23;100.00;100833.28;687806;28;1283;-68
2022/11/06 01:29:22;;;;;;;6.65;3.63;;;;;;;7.23;100.00;100843.69;686929;28;1660;-67
2022/11/06 01:29:43;;;;;;;8.07;3.90;;;;;;;7.22;100.00;100839.34;687432;28;1686;-67
2022/11/06 01:30:04;;;;;;;8.02;3.88;;;;;;;7.34;100.00;100842.09;687949;28;1440;-66
2022/11/06 01:30:24;;;;;;;7.60;3.83;;;;;;;7.33;100.00;100837.72;687569;28;1295;-67
2022/11/06 01:30:45;;;;;;;6.80;3.80;;;;;;;7.36;100.00;100837.75;687136;28;4282;-66
2022/11/06 01:31:11;;;;;;;7.82;3.92;;;;;;;7.38;100.00;100840.38;687789;28;971;-67
2022/11/06 01:31:32;;;;;;;6.65;3.75;;;;;;;7.38;100.00;100849.06;687075;28;1092;-67
2022/11/06 01:31:53;;;;;;;6.88;3.90;;;;;;;7.46;100.00;100825.72;687599;28;1243;-67
2022/11/06 01:32:13;;;;;;;6.80;4.10;;;;;;;7.50;100.00;100836.19;687347;28;1183;-67
2022/11/06 01:32:36;;;;;;;9.60;4.10;;;;;;;7.53;100.00;100835.31;687637;28;1455;-67
2022/11/06 01:32:56;;;;;;;7.50;4.13;;;;;;;7.57;100.00;100834.50;687451;28;1273;-67
2022/11/06 01:33:17;;;;;;;8.50;3.90;;;;;;;7.50;100.00;100833.59;686968;28;1423;-67
2022/11/06 01:33:38;;;;;;;9.17;4.03;;;;;;;7.50;100.00;100831.00;686938;28;4561;-67
2022/11/06 01:33:59;;;;;;;8.77;4.10;;;;;;;7.62;100.00;100842.38;687713;28;1371;-66
2022/11/06 01:34:20;;;;;;;8.07;4.05;;;;;;;7.59;100.00;100834.53;687543;28;1230;-67
2022/11/06 01:34:40;;;;;;;9.13;4.07;;;;;;;7.56;100.00;100834.50;687407;28;1437;-66
2022/11/06 01:35:00;;;;;;;8.48;3.90;;;;;;;7.52;100.00;100838.81;687825;28;1405;-67
2022/11/06 01:35:21;;;;;;;8.07;3.80;;;;;;;7.51;100.00;100834.47;687066;28;1294;-67
2022/11/06 01:35:48;;;;;;;7.15;3.78;;;;;;;7.59;100.00;100832.81;685810;28;2035;-67
2022/11/06 01:36:10;;;;;;;8.05;4.03;;;;;;;7.57;100.00;100838.84;687218;28;1227;-67
2022/11/06 01:36:31;;;;;;;7.65;3.67;;;;;;;7.58;100.00;100835.41;686992;28;1076;-67
2022/11/06 01:36:52;;;;;;;7.42;3.70;;;;;;;7.55;100.00;100830.16;686898;28;4308;-69
2022/11/06 01:37:12;;;;;;;7.47;3.90;;;;;;;7.50;100.00;100833.59;687233;28;1251;-67
2022/11/06 01:37:32;;;;;;;7.23;4.00;;;;;;;7.44;100.00;100833.50;687377;28;1262;-67
2022/11/06 01:37:53;;;;;;;8.68;3.95;;;;;;;7.39;100.00;100840.38;686883;28;1450;-67
2022/11/06 01:38:14;;;;;;;7.93;4.00;;;;;;;7.42;100.00;100824.84;686332;28;1281;-67
2022/11/06 01:38:34;;;;;;;7.45;4.30;;;;;;;7.37;100.00;100828.25;687031;28;1914;-67
2022/11/06 01:38:58;;;;;;;7.93;4.07;;;;;;;7.35;100.00;100838.59;685884;28;1365;-67
2022/11/06 01:39:18;;;;;;;9.82;4.13;;;;;;;7.31;100.00;100836.81;688474;28;1206;-67
2022/11/06 01:39:39;;;;;;;7.65;3.90;;;;;;;7.28;100.00;100831.59;687583;28;4413;-67
2022/11/06 01:39:59;;;;;;;7.43;3.80;;;;;;;7.28;100.00;100837.69;687957;28;1221;-67
2022/11/06 01:40:19;;;;;;;7.45;4.00;;;;;;;7.33;100.00;100835.13;686826;28;1386;-66
2022/11/06 01:40:41;;;;;;;7.77;4.27;;;;;;;7.42;100.00;100834.34;688685;28;1401;-66
2022/11/06 01:41:01;;;;;;;6.90;3.83;;;;;;;7.38;100.00;100838.66;687724;28;1413;-67
2022/11/06 01:41:29;;;;;;;7.60;4.23;;;;;;;7.38;100.00;100838.66;687121;28;1421;-67
2022/11/06 01:41:51;;;;;;;8.30;3.70;;;;;;;7.48;100.00;100827.47;686695;28;4890;-66
2022/11/06 01:42:13;;;;;;;7.15;3.72;;;;;;;7.60;100.00;100833.66;687271;28;1414;-66
2022/11/06 01:42:34;;;;;;;7.40;3.88;;;;;;;7.51;100.00;100829.25;690013;28;1485;-67
2022/11/06 01:42:54;;;;;;;7.95;3.95;;;;;;;7.48;100.00;100830.09;689740;28;4257;-67